Terminal Aerodrome Forecast
Issued by NWS Wakefield, VA

Home | Current Version | Previous Version | Text Only | Print | Product List | Glossary On
Versions: 1 2 3 4 5 6 7 8 9 10 11 12 13 14 15 16 17
048
FTUS41 KAKQ 302009 AAA
TAFORF
TAF AMD
KORF 302009Z 3020/3118 13007KT 5SM SHRA BR VCTS FEW018CB BKN040
      TEMPO 3020/3021 VRB25KT 2SM TSRA SCT006 BKN015CB
     FM302200 14008KT P6SM BKN035
     FM310000 15005KT P6SM SCT050 BKN100
     FM310300 20004KT P6SM BKN250
     FM311400 21008KT P6SM SCT030 BKN250=

USA.gov is the U.S. government's official web portal to all federal, state and local government web resources and services.